Mc Calla, Alabama
Current Conditions -  °F | °C
As of 4:37 PM on Sunday 21 Dec 2014 (Local Time) from KEET Reporting Station
Broken Clouds Broken Clouds  
Wind Chill: 53°   Ceiling: 1400
Heat Index: 53°   Visibility: 10mi
Dew Point: 48°   Wind: 5mph
Humidity: 83%   Direction: NA
Pressure: 30.06"   Gusts: NA
Location:  33.3452°N, 87.0035°W
Report Text: KEET 212237Z AUTO VRB04KT 10SM BKN014 BKN019 12/09 A3006 RMK AO2 T01170089
Loading
Personal Weather Stations






























Interactive Weather Map New forecast layout! Learn more

10-Day Weather Forecast

Advertisements
Track Severe Weather on mobile